Concord Township, Maine
Current Conditions -  °F | °C
As of 1:55 PM on Thursday 23 Oct 2014 (Local Time) from KWVL Reporting Station
Overcast Overcast  
Wind Chill: 43°   Ceiling: 800
Heat Index: 48°   Visibility: 9mi
Dew Point: 45°   Wind: 14mph
Humidity: 87%   Direction: 30°NNE
Pressure: 29.81"   Gusts: 26mph
Location:  45.1348°N, 69.8823°W
Report Text: KWVL 231755Z 03012G23KT 010V070 9SM OVC008 09/07 A2981 RMK AO1 P0002 60028 10090 20080 57014
Loading
Personal Weather Stations






























Interactive Weather Map
Tropical Storm Tracking
New forecast layout! Learn more

10-Day Weather Forecast

Advertisements
Track Severe Weather on mobile